Decoded Metar for KCGE (CAMBRIDGE-DORCH in MD, USA) (IATA:CGE) | Meteo·Mobile Aviation Weather
aviador You're here:

KCGE Decoded Metar

CAMBRIDGE-DORCH in MD, USA
Report Time2019-07-20 14:05:00
UTC Time2019-07-20 14:16:29
Flight Rules vfr VFR
Wind320° at 07 kt
W.Decomp.*RWY 34: 6.9 kt HW 1.2 kt LCW
Visibility9999 m
Phenomena:N/A
Clouds:N/A
Expected CloudBase > 2,800 ft AGL from Temp-Dew spread
CeilingNone
Temp32°C (ISA +17)
Dew Point25°C (67% RH)
Heat Index39.3°C
QNH1014 hPa
Density Alt2,346 ft
Elevation20 ft
Report Wrong Elevation
Raw Report
KCGE 201405Z AUTO 32007KT 9SM CLR 32/25 A2993 RMK A01=

Extra information for KCGE:More info

Metar Taf Metar & Taf Last 4 Metars F.Rules Stats Wind Profile Meteogram Temp Stats Airport Information Weather charts Add Link Nearby VenuesMetar ALERT Operation Metar Decoded Social comments

AIRNAV info for KCGE